Time;durP1;ratioP1;P1;durP2;ratioP2;P2;SDS_P1;SDS_P2;PMS_P1;PMS_P2;Temp;Humidity;BMP_temperature;BMP_pressure;BME280_temperature;BME280_humidity;BME280_pressure;Samples;Min_cycle;Max_cycle;Signal;HPM_P1;HPM_P2
2022/07/09 00:01:23;;;;;;;;;10.00;7.75;;;;;23.87;43.07;102237.75;5037510;28;45409;-58
2022/07/09 00:03:49;;;;;;;;;8.00;7.25;;;;;23.88;42.58;102238.56;5020244;28;45354;-58
2022/07/09 00:06:14;;;;;;;;;12.50;10.25;;;;;23.88;42.94;102250.66;5017625;28;45307;-60
2022/07/09 00:08:40;;;;;;;;;11.25;11.25;;;;;23.79;43.22;102243.81;5017194;28;46621;-60
2022/07/09 00:11:05;;;;;;;;;17.25;12.50;;;;;23.72;43.92;102248.78;5017465;28;45365;-61
2022/07/09 00:13:31;;;;;;;;;17.00;16.00;;;;;23.72;43.51;102248.78;4999638;28;45415;-59
2022/07/09 00:15:56;;;;;;;;;12.75;12.25;;;;;23.37;44.18;102209.78;5016344;28;45362;-58
2022/07/09 00:18:21;;;;;;;;;16.00;14.50;;;;;23.55;44.32;102239.38;5015936;28;46103;-58
2022/07/09 00:20:47;;;;;;;;;20.75;15.25;;;;;23.59;44.07;102244.47;5032303;28;45413;-58
2022/07/09 00:23:12;;;;;;;;;18.25;14.50;;;;;23.56;44.55;102248.66;5017251;28;45346;-57
2022/07/09 00:25:38;;;;;;;;;16.25;16.00;;;;;23.44;44.60;102239.53;5016186;28;45358;-58
2022/07/09 00:28:04;;;;;;;;;15.00;14.75;;;;;23.48;44.43;102237.91;5017154;28;46351;-58
2022/07/09 00:30:29;;;;;;;;;17.00;16.00;;;;;23.32;44.91;102211.69;5017172;28;45428;-57
2022/07/09 00:32:55;;;;;;;;;20.50;17.50;;;;;23.23;44.76;102203.72;4995519;28;45444;-58
2022/07/09 00:35:20;;;;;;;;;16.00;14.50;;;;;23.32;45.25;102237.72;5030899;28;45642;-57
2022/07/09 00:37:45;;;;;;;;;17.25;15.00;;;;;23.18;45.11;102214.00;5035839;28;46311;-58
2022/07/09 00:40:11;;;;;;;;;21.50;18.50;;;;;23.26;45.23;102230.38;5036973;28;45419;-59
2022/07/09 00:42:37;;;;;;;;;16.75;14.75;;;;;23.23;44.87;102205.69;5051976;28;45477;-60
2022/07/09 00:45:02;;;;;;;;;23.50;16.50;;;;;23.35;44.95;102225.16;5035129;28;45460;-60
2022/07/09 00:47:28;;;;;;;;;16.25;16.00;;;;;23.33;45.29;102230.19;5036789;28;46570;-60
2022/07/09 00:49:53;;;;;;;;;11.50;11.00;;;;;23.40;44.94;102234.47;5052439;28;45357;-57
2022/07/09 00:52:19;;;;;;;;;12.75;12.75;;;;;23.20;44.53;102200.63;5018795;28;45264;-58
2022/07/09 00:54:45;;;;;;;;;14.25;11.00;;;;;23.19;44.83;102196.97;5036026;28;45468;-58
2022/07/09 00:57:10;;;;;;;;;11.60;11.00;;;;;23.23;45.02;102203.72;5035420;28;45910;-59
2022/07/09 00:59:36;;;;;;;;;13.50;10.75;;;;;23.32;44.89;102223.72;5036387;28;45553;-59
2022/07/09 01:02:02;;;;;;;;;11.00;10.00;;;;;23.07;45.54;102194.31;5035650;28;45230;-57
2022/07/09 01:04:27;;;;;;;;;13.25;11.75;;;;;23.11;45.32;102220.66;5016096;28;45394;-58
2022/07/09 01:06:53;;;;;;;;;11.00;8.50;;;;;22.96;45.43;102200.88;5016635;28;46843;-58
2022/07/09 01:09:18;;;;;;;;;11.75;9.50;;;;;23.12;45.56;102221.53;5014842;28;45393;-58
2022/07/09 01:11:44;;;;;;;;;10.75;10.75;;;;;23.17;45.58;102220.72;5032326;28;45369;-58
2022/07/09 01:14:09;;;;;;;;;10.25;10.25;;;;;23.14;45.61;102214.56;5016768;28;45561;-58
2022/07/09 01:16:35;;;;;;;;;16.50;15.50;;;;;23.04;45.79;102200.41;5031959;28;46701;-58
2022/07/09 01:19:01;;;;;;;;;12.00;10.25;;;;;23.08;45.77;102210.00;5014913;28;45349;-60
2022/07/09 01:21:26;;;;;;;;;11.50;11.50;;;;;23.07;45.44;102201.84;5031612;28;45377;-61
2022/07/09 01:23:52;;;;;;;;;10.00;9.00;;;;;22.99;45.74;102197.53;5015310;28;45532;-60
2022/07/09 01:26:19;;;;;;;;;13.00;11.00;;;;;22.84;45.94;102187.03;5016348;28;46021;-60
2022/07/09 01:28:46;;;;;;;;;7.60;7.60;;;;;22.89;46.14;102195.47;5016173;28;45316;-60
2022/07/09 01:31:11;;;;;;;;;7.20;6.40;;;;;22.93;45.89;102202.25;5031973;28;45363;-59
2022/07/09 01:33:37;;;;;;;;;10.50;8.50;;;;;22.74;45.94;102168.97;5015327;28;45821;-60
2022/07/09 01:36:03;;;;;;;;;9.00;6.00;;;;;22.85;46.39;102208.31;5014717;28;46669;-57
2022/07/09 01:38:28;;;;;;;;;8.75;8.75;;;;;22.60;46.38;102171.34;5016191;28;45339;-58
2022/07/09 01:40:53;;;;;;;;;5.50;5.00;;;;;22.81;46.60;102204.31;5016385;28;45406;-58
2022/07/09 01:43:19;;;;;;;;;9.50;7.00;;;;;22.60;46.36;102171.34;4998324;28;45375;-57
2022/07/09 01:45:44;;;;;;;;;8.25;6.00;;;;;22.77;46.29;102191.97;5014782;28;45767;-59
2022/07/09 01:48:10;;;;;;;;;5.50;5.50;;;;;22.76;46.20;102199.50;5015994;28;45387;-59
2022/07/09 01:50:35;;;;;;;;;6.00;6.00;;;;;22.69;46.15;102185.69;5016279;28;45365;-58
2022/07/09 01:53:01;;;;;;;;;7.75;5.75;;;;;22.78;46.46;102196.47;5014778;28;45497;-57
2022/07/09 01:55:26;;;;;;;;;7.00;7.00;;;;;22.61;46.50;102163.78;5014409;28;46447;-57
2022/07/09 01:57:52;;;;;;;;;5.25;5.00;;;;;22.59;46.77;102172.44;5016079;28;45447;-58
2022/07/09 02:00:19;;;;;;;;;7.00;7.00;;;;;22.71;46.52;102191.91;5005484;28;45457;-60
2022/07/09 02:02:44;;;;;;;;;7.00;7.00;;;;;22.72;46.35;102175.94;5012581;28;45519;-59
2022/07/09 02:05:10;;;;;;;;;7.00;6.00;;;;;22.75;46.42;102164.25;5015739;28;45785;-59
2022/07/09 02:07:35;;;;;;;;;7.00;7.00;;;;;22.74;46.15;102156.97;4998410;28;45611;-60
2022/07/09 02:10:01;;;;;;;;;5.50;5.50;;;;;22.70;46.33;102152.97;5015494;28;45299;-59
2022/07/09 02:12:27;;;;;;;;;6.20;6.20;;;;;22.67;46.34;102143.16;5015951;28;45315;-58
2022/07/09 02:14:53;;;;;;;;;6.20;6.20;;;;;22.82;46.11;102173.28;5015186;28;45434;-57
2022/07/09 02:17:19;;;;;;;;;7.25;7.25;;;;;22.77;46.25;102169.59;5015448;28;45489;-57
2022/07/09 02:19:44;;;;;;;;;9.00;9.00;;;;;22.72;46.27;102162.81;5015343;28;45488;-56
2022/07/09 02:22:10;;;;;;;;;8.75;7.25;;;;;22.43;46.73;102139.72;5016396;28;45299;-57
2022/07/09 02:24:35;;;;;;;;;9.75;8.25;;;;;22.54;46.69;102161.19;5014366;28;45680;-57
2022/07/09 02:27:01;;;;;;;;;8.00;8.00;;;;;22.48;46.91;102142.59;5015321;28;45371;-58
2022/07/09 02:29:26;;;;;;;;;5.00;5.00;;;;;22.52;46.94;102156.94;5015875;28;45523;-58
2022/07/09 02:31:54;;;;;;;;;8.00;8.00;;;;;22.44;47.18;102159.06;5015836;28;45606;-58
2022/07/09 02:34:19;;;;;;;;;8.40;7.40;;;;;22.51;47.33;102158.03;5015432;28;46533;-59
2022/07/09 02:36:45;;;;;;;;;6.50;6.50;;;;;22.48;47.22;102154.63;5015962;28;45212;-57
2022/07/09 02:39:10;;;;;;;;;7.00;6.75;;;;;22.36;47.06;102125.09;5031082;28;45286;-57
2022/07/09 02:41:35;;;;;;;;;7.00;6.25;;;;;22.58;47.11;102153.94;5015865;28;45287;-57
2022/07/09 02:44:01;;;;;;;;;6.00;5.25;;;;;22.32;47.09;102100.44;5015188;28;46036;-57
2022/07/09 02:46:26;;;;;;;;;5.25;5.25;;;;;22.65;46.62;102150.97;5015618;28;45393;-59
2022/07/09 02:48:52;;;;;;;;;7.75;7.75;;;;;22.64;46.51;102157.69;5015737;28;45847;-59
2022/07/09 02:51:17;;;;;;;;;8.75;8.75;;;;;22.60;47.06;102146.16;5014307;28;45567;-59
2022/07/09 02:53:43;;;;;;;;;7.75;7.75;;;;;22.42;46.79;102119.28;5015587;28;45611;-58
2022/07/09 02:56:08;;;;;;;;;10.00;9.00;;;;;22.52;46.82;102146.59;5015587;28;45325;-57
2022/07/09 02:58:34;;;;;;;;;6.50;6.50;;;;;22.51;47.21;102156.09;5031031;28;45312;-55
2022/07/09 03:00:59;;;;;;;;;5.00;5.00;;;;;22.51;46.96;102158.03;5015329;28;45559;-57
2022/07/09 03:03:26;;;;;;;;;6.00;6.00;;;;;22.39;47.44;102145.00;5014174;28;45667;-59
2022/07/09 03:05:51;;;;;;;;;9.20;8.20;;;;;22.38;47.51;102146.09;5015326;28;45369;-57
2022/07/09 03:08:17;;;;;;;;;9.75;6.75;;;;;22.45;47.55;102154.28;5018516;28;45341;-58
2022/07/09 03:10:43;;;;;;;;;5.80;5.80;;;;;22.43;47.47;102165.75;5034534;28;45424;-59
2022/07/09 03:13:08;;;;;;;;;7.50;7.25;;;;;22.36;47.53;102155.84;5017267;28;47125;-60
2022/07/09 03:15:34;;;;;;;;;7.75;6.75;;;;;22.25;47.53;102136.13;5018719;28;45495;-59
2022/07/09 03:17:59;;;;;;;;;6.75;5.75;;;;;22.42;47.58;102158.44;5018591;28;45892;-59
2022/07/09 03:20:25;;;;;;;;;10.25;8.25;;;;;22.47;47.56;102163.28;5017306;28;45554;-57
2022/07/09 03:22:51;;;;;;;;;9.00;7.25;;;;;22.28;47.38;102130.03;5033812;28;46805;-58
2022/07/09 03:25:17;;;;;;;;;6.80;6.20;;;;;22.42;47.77;102161.25;5018332;28;45536;-58
2022/07/09 03:27:42;;;;;;;;;7.50;7.00;;;;;22.43;47.53;102157.38;5034151;28;45378;-57
2022/07/09 03:30:08;;;;;;;;;6.50;6.00;;;;;22.44;47.68;102164.66;5034123;28;45231;-58
2022/07/09 03:32:33;;;;;;;;;7.00;7.00;;;;;22.41;47.56;102159.56;5018317;28;46989;-60
2022/07/09 03:34:59;;;;;;;;;8.50;7.00;;;;;22.41;47.57;102167.13;5033253;28;45401;-60
2022/07/09 03:37:24;;;;;;;;;7.00;7.00;;;;;22.42;47.59;102172.44;5018509;28;45330;-60
2022/07/09 03:39:50;;;;;;;;;5.75;5.75;;;;;22.44;48.04;102172.19;5033860;28;45532;-59
2022/07/09 03:42:15;;;;;;;;;7.75;7.50;;;;;22.39;47.62;102170.16;5000412;28;46082;-59
2022/07/09 03:44:41;;;;;;;;;8.00;6.75;;;;;22.37;47.53;102169.59;5033452;28;45381;-58
2022/07/09 03:47:07;;;;;;;;;5.50;5.50;;;;;22.34;47.81;102168.16;5018637;28;45428;-53
2022/07/09 03:49:33;;;;;;;;;7.00;6.00;;;;;22.29;48.10;102173.66;5017240;28;45380;-57
2022/07/09 03:51:58;;;;;;;;;6.50;6.50;;;;;22.09;48.06;102137.03;5016832;28;45683;-59
2022/07/09 03:54:24;;;;;;;;;6.75;5.00;;;;;22.25;48.24;102172.47;5018098;28;45425;-56
2022/07/09 03:56:50;;;;;;;;;5.00;5.00;;;;;22.26;48.26;102177.00;5033881;28;45327;-58
2022/07/09 03:59:15;;;;;;;;;5.80;5.80;;;;;22.06;48.14;102146.75;5018446;28;45264;-58
2022/07/09 04:01:41;;;;;;;;;6.75;6.75;;;;;22.25;48.24;102180.03;5016516;28;46203;-59
2022/07/09 04:04:06;;;;;;;;;6.25;6.25;;;;;22.09;48.27;102163.00;5017890;28;45789;-58
2022/07/09 04:06:32;;;;;;;;;8.25;7.00;;;;;21.95;48.44;102142.97;5018008;28;45406;-58
2022/07/09 04:08:57;;;;;;;;;7.75;7.75;;;;;22.09;48.44;102168.59;5018141;28;45389;-58
2022/07/09 04:11:23;;;;;;;;;6.00;6.00;;;;;22.00;48.32;102161.75;5016818;28;46198;-56
2022/07/09 04:13:48;;;;;;;;;7.25;6.00;;;;;22.15;48.62;102195.53;5033265;28;45380;-59
2022/07/09 04:16:14;;;;;;;;;8.00;7.00;;;;;22.09;48.47;102187.34;5032995;28;45288;-60
2022/07/09 04:18:43;;;;;;;;;8.25;8.25;;;;;22.13;48.63;102197.75;5016408;28;45702;-60
2022/07/09 04:21:09;;;;;;;;;8.80;7.40;;;;;21.75;48.71;102147.13;5017078;28;46822;-58
2022/07/09 04:23:35;;;;;;;;;8.00;8.00;;;;;22.05;48.97;102198.19;5017752;28;45370;-59
2022/07/09 04:26:00;;;;;;;;;7.25;7.00;;;;;22.04;48.64;102194.53;5032913;28;45341;-59
2022/07/09 04:28:26;;;;;;;;;6.00;6.00;;;;;21.99;48.78;102191.63;5033381;28;45401;-60
2022/07/09 04:30:52;;;;;;;;;8.00;5.75;;;;;22.00;48.88;102196.16;5017217;28;45346;-59
2022/07/09 04:33:18;;;;;;;;;5.25;5.00;;;;;21.96;49.09;102191.31;5017143;28;45422;-59
2022/07/09 04:35:44;;;;;;;;;7.75;7.75;;;;;21.96;48.98;102185.72;5017570;28;45478;-58
2022/07/09 04:38:13;;;;;;;;;9.80;8.80;;;;;21.76;48.90;102153.53;5033034;28;45691;-58
2022/07/09 04:40:39;;;;;;;;;8.60;7.20;;;;;21.97;48.95;102182.66;5015722;28;46494;-60
2022/07/09 04:43:05;;;;;;;;;9.75;8.50;;;;;21.96;49.01;102186.56;4999637;28;45390;-60
2022/07/09 04:45:31;;;;;;;;;7.00;7.00;;;;;21.66;48.93;102140.22;5016054;28;45428;-60
2022/07/09 04:48:00;;;;;;;;;9.20;7.80;;;;;21.82;48.91;102160.91;4999791;28;45346;-59
2022/07/09 04:50:25;;;;;;;;;7.40;6.40;;;;;21.98;49.07;102191.91;5015760;28;46018;-58
2022/07/09 04:52:51;;;;;;;;;10.25;8.00;;;;;21.93;49.09;102184.31;4999697;28;45765;-59
2022/07/09 04:55:17;;;;;;;;;6.50;6.50;;;;;21.88;49.07;102187.00;5016895;28;45427;-59
2022/07/09 04:57:43;;;;;;;;;9.50;8.25;;;;;21.87;48.88;102182.53;5017624;28;45369;-58
2022/07/09 05:00:09;;;;;;;;;8.20;8.20;;;;;21.82;48.76;102174.88;5016895;28;45740;-58
2022/07/09 05:02:35;;;;;;;;;7.00;7.00;;;;;21.86;49.05;102184.47;5015715;28;45353;-55
2022/07/09 05:05:00;;;;;;;;;8.75;8.00;;;;;21.86;48.94;102189.19;5016990;28;45239;-58
2022/07/09 05:07:26;;;;;;;;;10.00;8.25;;;;;21.77;48.96;102184.03;5017347;28;45244;-55
2022/07/09 05:09:51;;;;;;;;;9.50;8.75;;;;;21.74;49.25;102183.69;5032251;28;46892;-59
2022/07/09 05:12:17;;;;;;;;;6.75;6.75;;;;;21.73;49.20;102184.78;5015633;28;45282;-58
2022/07/09 05:14:42;;;;;;;;;8.50;8.50;;;;;21.60;49.45;102164.44;5016767;28;45276;-57
2022/07/09 05:17:08;;;;;;;;;7.25;7.25;;;;;21.67;49.35;102176.28;5017330;28;45222;-58
2022/07/09 05:19:33;;;;;;;;;10.00;8.00;;;;;21.85;49.14;102193.94;5031613;28;46692;-57
2022/07/09 05:21:58;;;;;;;;;9.25;8.25;;;;;21.82;49.00;102185.22;5014670;28;45355;-57
2022/07/09 05:24:24;;;;;;;;;8.75;8.00;;;;;21.79;49.00;102180.97;5016802;28;45331;-58
2022/07/09 05:26:50;;;;;;;;;7.25;7.25;;;;;21.83;49.10;102192.50;5015417;28;45425;-58
2022/07/09 05:29:16;;;;;;;;;8.75;8.75;;;;;21.83;49.19;102178.53;5014301;28;46680;-60
2022/07/09 05:31:41;;;;;;;;;6.20;6.20;;;;;21.73;49.33;102185.66;5031456;28;45531;-60
2022/07/09 05:34:07;;;;;;;;;10.50;9.00;;;;;21.75;49.29;102189.03;5015294;28;45387;-60
2022/07/09 05:36:33;;;;;;;;;10.80;10.80;;;;;21.75;49.19;102188.16;5016405;28;45429;-59
2022/07/09 05:38:59;;;;;;;;;9.50;9.50;;;;;21.80;49.23;102188.25;5031194;28;45380;-59
2022/07/09 05:41:25;;;;;;;;;10.60;10.40;;;;;21.83;49.32;102189.72;4998507;28;45556;-58
2022/07/09 05:43:51;;;;;;;;;12.25;11.25;;;;;21.66;49.17;102166.22;5016170;28;45410;-57
2022/07/09 05:46:17;;;;;;;;;8.40;7.40;;;;;21.80;49.38;102197.50;5031556;28;45397;-58
2022/07/09 05:48:43;;;;;;;;;11.00;9.20;;;;;21.80;49.27;102183.53;5016142;28;46668;-58
2022/07/09 05:51:08;;;;;;;;;10.75;9.00;;;;;21.75;49.29;102186.22;5014659;28;45410;-58
2022/07/09 05:53:34;;;;;;;;;14.00;9.00;;;;;21.66;49.56;102177.38;5016376;28;45247;-57
2022/07/09 05:55:59;;;;;;;;;12.00;9.00;;;;;21.83;49.49;102187.78;5031196;28;45341;-59
2022/07/09 05:58:25;;;;;;;;;7.75;7.75;;;;;21.86;49.30;102187.25;5015819;28;45466;-59
2022/07/09 06:00:50;;;;;;;;;8.00;7.50;;;;;21.90;49.20;102184.78;5031430;28;45640;-58
2022/07/09 06:03:16;;;;;;;;;8.50;8.50;;;;;21.92;49.00;102185.38;5015481;28;45407;-57
2022/07/09 06:05:41;;;;;;;;;8.25;8.25;;;;;21.91;49.18;102183.69;5016377;28;45276;-58
2022/07/09 06:08:07;;;;;;;;;9.50;8.50;;;;;21.94;49.18;102189.63;5014406;28;46593;-56
2022/07/09 06:10:32;;;;;;;;;6.75;6.75;;;;;21.94;49.15;102188.78;5031162;28;45314;-58
2022/07/09 06:12:58;;;;;;;;;9.00;7.75;;;;;21.87;49.28;102188.94;4979857;28;45576;-58
2022/07/09 06:15:23;;;;;;;;;7.00;7.00;;;;;21.92;49.21;102190.97;5015880;28;45404;-59
2022/07/09 06:17:50;;;;;;;;;15.25;9.75;;;;;21.94;49.20;102191.59;5015579;28;46832;-59
2022/07/09 06:20:16;;;;;;;;;13.40;12.20;;;;;21.74;49.46;102172.50;5030315;28;45405;-60
2022/07/09 06:22:41;;;;;;;;;9.00;9.00;;;;;21.91;49.38;102184.56;5016006;28;45295;-60
2022/07/09 06:25:08;;;;;;;;;14.00;14.00;;;;;22.01;49.33;102195.06;5014866;28;45222;-58
2022/07/09 06:27:34;;;;;;;;;9.40;8.20;;;;;21.99;49.39;102185.22;5014301;28;46345;-60
2022/07/09 06:29:59;;;;;;;;;12.50;11.25;;;;;21.94;49.36;102188.78;5014406;28;45369;-58
2022/07/09 06:32:25;;;;;;;;;7.50;7.50;;;;;22.04;49.28;102200.13;5015750;28;45420;-57
2022/07/09 06:34:51;;;;;;;;;10.50;10.50;;;;;21.85;49.33;102166.00;5031618;28;45375;-56
2022/07/09 06:37:16;;;;;;;;;12.00;10.25;;;;;21.96;49.32;102189.38;5014060;28;46741;-58
2022/07/09 06:39:44;;;;;;;;;11.25;11.25;;;;;21.88;49.64;102175.81;5030988;28;45356;-58
2022/07/09 06:42:10;;;;;;;;;11.20;10.40;;;;;21.91;49.68;102197.66;4991667;28;45947;-59
2022/07/09 06:44:36;;;;;;;;;11.50;11.50;;;;;21.94;49.25;102194.38;5034211;28;45528;-57
2022/07/09 06:47:01;;;;;;;;;10.75;10.75;;;;;21.92;49.35;102179.78;5017861;28;45912;-57
2022/07/09 06:49:27;;;;;;;;;12.25;11.00;;;;;22.04;49.46;102199.28;5018083;28;45345;-59
2022/07/09 06:51:53;;;;;;;;;11.25;11.25;;;;;21.95;49.53;102190.47;5034450;28;45344;-58
2022/07/09 06:54:18;;;;;;;;;12.50;11.50;;;;;21.99;49.63;102197.22;5017787;28;45373;-60
2022/07/09 06:56:44;;;;;;;;;11.75;9.00;;;;;21.99;49.62;102190.81;5017285;28;45626;-58
2022/07/09 06:59:09;;;;;;;;;9.50;9.50;;;;;22.02;49.27;102182.75;5001152;28;45345;-53
2022/07/09 07:01:35;;;;;;;;;10.25;10.00;;;;;22.13;49.52;102202.47;5018939;28;45408;-60
2022/07/09 07:04:00;;;;;;;;;16.25;12.50;;;;;22.18;49.38;102199.78;5019144;28;45504;-61
2022/07/09 07:06:26;;;;;;;;;12.50;11.75;;;;;22.05;49.13;102159.88;5018927;28;45380;-58
2022/07/09 07:08:52;;;;;;;;;11.80;9.60;;;;;22.16;49.10;102168.44;5018579;28;45379;-62
2022/07/09 07:11:18;;;;;;;;;11.00;9.50;;;;;22.29;48.95;102190.44;5018580;28;45288;-60
2022/07/09 07:13:44;;;;;;;;;10.00;9.00;;;;;22.36;48.70;102189.41;4990810;28;45765;-60
2022/07/09 07:16:09;;;;;;;;;15.00;14.25;;;;;22.28;49.30;102169.19;5018473;28;46360;-59
2022/07/09 07:18:35;;;;;;;;;15.50;13.00;;;;;22.40;48.72;102185.84;5018624;28;45303;-62
2022/07/09 07:21:00;;;;;;;;;12.00;12.00;;;;;22.43;48.71;102184.47;5018186;28;45314;-58
2022/07/09 07:23:25;;;;;;;;;13.25;11.25;;;;;22.47;48.66;102189.31;5017418;28;45493;-59
2022/07/09 07:25:51;;;;;;;;;9.75;9.75;;;;;22.52;48.53;102193.31;5018329;28;45459;-61
2022/07/09 07:28:16;;;;;;;;;13.00;11.00;;;;;22.53;48.45;102189.41;5017810;28;45375;-59
2022/07/09 07:30:42;;;;;;;;;8.75;8.75;;;;;22.53;48.27;102186.63;5018635;28;45303;-59
2022/07/09 07:33:07;;;;;;;;;8.75;8.50;;;;;22.55;47.85;102184.41;5000240;28;45471;-58
2022/07/09 07:35:33;;;;;;;;;8.75;8.50;;;;;22.63;48.16;102199.91;5018191;28;46755;-58
2022/07/09 07:38:01;;;;;;;;;11.75;10.00;;;;;22.57;48.31;102194.22;5016070;28;45777;-61
2022/07/09 07:40:27;;;;;;;;;10.00;10.00;;;;;22.58;48.37;102170.72;5017888;28;45365;-60
2022/07/09 07:42:52;;;;;;;;;5.00;4.00;;;;;22.78;47.65;102197.28;4982407;27;45405;-65
2022/07/09 07:45:18;;;;;;;;;8.25;7.50;;;;;22.81;47.84;102196.78;5033136;28;45718;-60
2022/07/09 07:47:43;;;;;;;;;10.25;9.25;;;;;22.90;47.81;102193.53;5017822;28;45425;-59
2022/07/09 07:50:09;;;;;;;;;13.00;9.25;;;;;22.92;46.90;102194.09;5018224;28;45957;-58
2022/07/09 07:52:34;;;;;;;;;9.25;9.25;;;;;22.81;46.97;102174.41;5016220;28;45913;-62
2022/07/09 07:55:00;;;;;;;;;10.00;10.00;;;;;23.00;47.33;102190.88;5016631;28;45484;-62
2022/07/09 07:57:26;;;;;;;;;8.60;7.60;;;;;22.87;47.02;102167.75;5016679;28;45386;-62
2022/07/09 07:59:51;;;;;;;;;10.50;10.50;;;;;23.12;47.16;102194.34;5018200;28;45357;-59
2022/07/09 08:02:17;;;;;;;;;8.00;7.00;;;;;23.13;46.65;102182.06;5032787;28;45666;-59
2022/07/09 08:04:42;;;;;;;;;8.50;8.00;;;;;23.05;46.63;102160.09;5032606;28;45566;-60
2022/07/09 08:07:07;;;;;;;;;8.75;8.75;;;;;23.26;46.34;102185.56;5016500;28;45560;-58
2022/07/09 08:09:34;;;;;;;;;7.75;7.00;;;;;23.10;46.29;102154.56;5017787;28;45334;-59
2022/07/09 08:12:00;;;;;;;;;10.00;8.80;;;;;23.37;46.01;102192.16;4993965;28;45814;-59
2022/07/09 08:14:25;;;;;;;;;10.60;9.00;;;;;23.25;46.01;102162.31;5016367;28;46238;-59
2022/07/09 08:16:51;;;;;;;;;9.50;8.75;;;;;23.47;46.47;102183.84;5017511;28;45579;-59
2022/07/09 08:19:16;;;;;;;;;8.25;6.50;;;;;23.51;46.35;102181.34;5017426;28;45359;-59
2022/07/09 08:21:42;;;;;;;;;7.75;7.75;;;;;23.56;45.81;102184.19;5017543;28;45560;-60
2022/07/09 08:24:07;;;;;;;;;10.25;8.00;;;;;23.51;45.72;102175.75;5016081;28;46602;-61
2022/07/09 08:26:33;;;;;;;;;7.00;7.00;;;;;23.62;45.92;102173.88;5016378;28;45378;-60
2022/07/09 08:28:58;;;;;;;;;8.00;7.00;;;;;23.68;45.77;102170.00;5017098;28;45343;-60
2022/07/09 08:31:24;;;;;;;;;5.75;5.50;;;;;23.65;45.24;102154.56;5017621;28;45283;-60
2022/07/09 08:33:50;;;;;;;;;6.75;6.75;;;;;23.66;45.04;102158.22;5016867;28;45374;-62
2022/07/09 08:36:16;;;;;;;;;6.00;6.00;;;;;23.74;44.61;102165.31;5032121;28;45430;-60
2022/07/09 08:38:41;;;;;;;;;7.50;6.00;;;;;23.61;44.52;102138.56;5015900;28;45285;-61
2022/07/09 08:41:07;;;;;;;;;8.00;8.00;;;;;23.69;44.46;102140.88;5032657;28;45655;-62
2022/07/09 08:43:34;;;;;;;;;5.75;5.75;;;;;23.71;44.96;102140.59;5015516;28;46637;-59
2022/07/09 08:45:59;;;;;;;;;8.00;6.00;;;;;23.81;44.37;102149.94;5032231;28;45319;-60
2022/07/09 08:48:25;;;;;;;;;8.50;8.00;;;;;23.94;44.19;102165.47;5015818;28;45309;-59
2022/07/09 08:50:51;;;;;;;;;5.00;5.00;;;;;24.00;43.74;102160.75;5017435;28;45267;-58
2022/07/09 08:53:17;;;;;;;;;6.25;6.25;;;;;24.00;43.94;102155.13;5009642;28;46523;-61
2022/07/09 08:55:43;;;;;;;;;5.80;5.80;;;;;24.00;44.01;102148.69;5019401;28;45635;-60
2022/07/09 08:58:10;;;;;;;;;5.75;5.75;;;;;24.03;43.79;102136.94;5047880;28;45936;-63
2022/07/09 09:00:36;;;;;;;;;6.20;6.20;;;;;24.19;43.98;102149.13;5012812;28;45545;-62
2022/07/09 09:03:02;;;;;;;;;7.75;5.75;;;;;24.09;43.08;102130.28;5010982;28;46744;-59
2022/07/09 09:05:27;;;;;;;;;6.40;5.20;;;;;24.30;43.03;102147.22;5011377;28;45920;-58
2022/07/09 09:07:53;;;;;;;;;6.75;5.00;;;;;24.31;42.68;102148.91;5028527;28;45382;-59
2022/07/09 09:10:22;;;;;;;;;6.25;5.00;;;;;24.22;42.52;102121.38;5032676;28;45603;-61
2022/07/09 09:12:48;;;;;;;;;6.60;6.60;;;;;24.42;42.54;102145.06;4996448;28;45913;-58
2022/07/09 09:15:17;;;;;;;;;8.25;8.25;;;;;24.45;43.14;102127.66;5000898;28;45631;-61
2022/07/09 09:17:44;;;;;;;;;6.40;6.20;;;;;24.39;43.21;102103.53;5030369;28;45530;-56
2022/07/09 09:20:16;;;;;;;;;5.60;5.40;;;;;24.57;42.97;102135.88;5013228;28;45594;-59
2022/07/09 09:23:02;;;;;;;;;4.20;4.20;;;;;24.40;42.72;102108.00;5031028;28;45831;-60
2022/07/09 09:25:27;;;;;;;;;5.80;5.00;;;;;24.48;43.13;102110.28;5031388;28;45440;-59
2022/07/09 09:27:54;;;;;;;;;5.00;5.00;;;;;24.53;42.44;102105.81;5030603;28;45881;-62
2022/07/09 09:30:19;;;;;;;;;5.00;4.00;;;;;24.75;42.84;102136.47;5031010;28;45473;-59
2022/07/09 09:32:59;;;;;;;;;5.25;2.50;;;;;24.68;42.68;102110.63;5019642;28;45909;-59
2022/07/09 09:35:29;;;;;;;;;5.00;3.20;;;;;24.77;41.55;102120.22;5034899;28;45502;-60
2022/07/09 09:37:55;;;;;;;;;3.80;3.80;;;;;24.85;41.92;102141.31;5016968;28;45466;-60
2022/07/09 09:40:21;;;;;;;;;5.50;5.50;;;;;24.77;42.47;102134.25;5050877;28;45390;-59
2022/07/09 09:42:46;;;;;;;;;4.00;4.00;;;;;24.64;42.53;102114.00;5033695;28;45880;-57
2022/07/09 09:45:14;;;;;;;;;3.25;3.25;;;;;24.85;42.43;102146.94;5048891;28;45686;-58
2022/07/09 09:47:39;;;;;;;;;4.00;4.00;;;;;24.73;41.68;102119.94;5045626;28;45472;-58
2022/07/09 09:50:05;;;;;;;;;4.00;4.00;;;;;24.86;42.09;102138.25;5047594;28;45551;-59
2022/07/09 09:52:31;;;;;;;;;4.80;4.80;;;;;24.85;41.88;102135.69;5030403;28;46410;-60
2022/07/09 09:54:56;;;;;;;;;7.00;6.00;;;;;24.95;41.69;102141.38;5013337;28;46032;-59
2022/07/09 09:57:26;;;;;;;;;5.50;4.25;;;;;24.82;41.97;102119.44;5038139;28;45422;-58
2022/07/09 09:59:52;;;;;;;;;4.60;4.60;;;;;25.09;42.02;102149.25;5051894;28;45449;-59
2022/07/09 10:02:17;;;;;;;;;5.25;4.50;;;;;25.10;42.00;102143.38;5049807;28;45985;-60
2022/07/09 10:04:43;;;;;;;;;4.75;4.75;;;;;25.00;41.69;102116.13;5025604;28;45711;-61
2022/07/09 10:07:10;;;;;;;;;9.40;8.00;;;;;25.22;41.99;102143.09;5030342;28;45454;-59
2022/07/09 10:09:36;;;;;;;;;7.00;5.00;;;;;25.03;42.28;102107.13;5040352;28;45616;-59
2022/07/09 10:12:01;;;;;;;;;5.25;5.25;;;;;25.30;41.98;102138.91;5050161;28;45799;-58
2022/07/09 10:14:27;;;;;;;;;4.25;4.25;;;;;25.23;41.90;102121.50;5051578;28;45493;-59
2022/07/09 10:16:52;;;;;;;;;6.75;5.75;;;;;25.39;41.52;102134.41;5051236;28;45388;-61
2022/07/09 10:19:29;;;;;;;;;5.00;5.00;;;;;25.41;41.35;102134.97;5050542;28;45452;-60
2022/07/09 10:21:57;;;;;;;;;4.40;4.40;;;;;25.48;41.32;102139.47;5047673;28;46243;-58
2022/07/09 10:24:27;;;;;;;;;6.60;5.60;;;;;25.51;41.23;102128.53;5009460;27;46214;-60
2022/07/09 10:26:52;;;;;;;;;6.40;5.20;;;;;25.62;40.75;102125.75;5029432;28;45434;-60
2022/07/09 10:29:24;;;;;;;;;4.75;4.50;;;;;25.33;41.52;102090.59;5028433;28;45711;-60
2022/07/09 10:31:50;;;;;;;;;4.00;4.00;;;;;25.64;40.86;102118.72;5030761;28;45528;-58
2022/07/09 10:34:36;;;;;;;;;4.00;4.00;;;;;25.67;40.67;102118.16;5042690;28;45649;-60
2022/07/09 10:37:03;;;;;;;;;5.40;5.40;;;;;25.68;40.30;102102.13;5049970;28;45586;-57
2022/07/09 10:39:29;;;;;;;;;6.20;6.20;;;;;25.81;40.90;102115.63;5033092;28;45394;-59
2022/07/09 10:42:20;;;;;;;;;4.00;4.00;;;;;25.65;40.71;102099.88;5032681;28;46861;-58
2022/07/09 10:44:45;;;;;;;;;7.80;6.20;;;;;25.66;40.62;102104.41;5050813;28;45405;-60
2022/07/09 10:47:11;;;;;;;;;7.75;6.50;;;;;25.83;40.89;102113.34;5048564;28;45479;-59
2022/07/09 10:49:37;;;;;;;;;7.00;5.50;;;;;25.92;40.43;102112.81;5046421;28;45851;-60
2022/07/09 10:52:03;;;;;;;;;3.00;3.00;;;;;26.01;40.71;102108.28;5046055;28;46540;-58
2022/07/09 10:54:28;;;;;;;;;3.40;3.40;;;;;26.08;40.56;102108.81;5030640;28;45462;-59
2022/07/09 10:56:54;;;;;;;;;6.75;5.25;;;;;26.14;40.43;102092.75;5030379;28;45420;-60
2022/07/09 10:59:20;;;;;;;;;3.00;3.00;;;;;26.21;39.88;102093.28;5047329;28;45421;-61
2022/07/09 11:01:46;;;;;;;;;5.75;5.75;;;;;26.25;39.93;102085.19;5050666;28;46452;-57
2022/07/09 11:04:14;;;;;;;;;5.00;5.00;;;;;26.37;39.75;102091.31;5048926;28;46073;-60
2022/07/09 11:06:46;;;;;;;;;5.60;5.60;;;;;26.26;39.49;102061.53;5030848;28;45441;-58
2022/07/09 11:09:15;;;;;;;;;5.00;5.00;;;;;26.39;38.75;102049.66;5028537;28;45612;-63
2022/07/09 11:11:44;;;;;;;;;6.00;6.00;;;;;26.67;38.96;102071.75;5050576;28;45483;-61
2022/07/09 11:14:10;;;;;;;;;6.40;4.00;;;;;26.71;39.25;102069.19;5050771;28;45444;-59
2022/07/09 11:16:35;;;;;;;;;7.20;4.60;;;;;26.78;38.97;102066.91;5049239;28;45499;-59